sensor_id;sensor_type;location;lat;lon;timestamp;P1;durP1;ratioP1;P2;durP2;ratioP2
17340;SDS011;8788;49.930;8.660;2023-05-07T00:01:43;2.65;;;1.30;;
17340;SDS011;8788;49.930;8.660;2023-05-07T00:04:10;1.80;;;1.00;;
17340;SDS011;8788;49.930;8.660;2023-05-07T00:06:38;2.67;;;1.20;;
17340;SDS011;8788;49.930;8.660;2023-05-07T00:09:06;1.58;;;1.20;;
17340;SDS011;8788;49.930;8.660;2023-05-07T00:11:33;2.72;;;1.02;;
17340;SDS011;8788;49.930;8.660;2023-05-07T00:14:00;1.63;;;1.45;;
17340;SDS011;8788;49.930;8.660;2023-05-07T00:16:28;2.00;;;1.10;;
17340;SDS011;8788;49.930;8.660;2023-05-07T00:18:55;2.40;;;1.45;;
17340;SDS011;8788;49.930;8.660;2023-05-07T00:21:22;1.50;;;1.20;;
17340;SDS011;8788;49.930;8.660;2023-05-07T00:23:51;1.67;;;1.35;;
17340;SDS011;8788;49.930;8.660;2023-05-07T00:26:18;1.00;;;0.95;;
17340;SDS011;8788;49.930;8.660;2023-05-07T00:28:48;1.65;;;1.40;;
17340;SDS011;8788;49.930;8.660;2023-05-07T00:31:15;1.67;;;1.13;;
17340;SDS011;8788;49.930;8.660;2023-05-07T00:33:44;2.30;;;1.35;;
17340;SDS011;8788;49.930;8.660;2023-05-07T00:36:11;1.52;;;1.42;;
17340;SDS011;8788;49.930;8.660;2023-05-07T00:38:38;1.58;;;1.40;;
17340;SDS011;8788;49.930;8.660;2023-05-07T00:41:05;2.30;;;1.13;;
17340;SDS011;8788;49.930;8.660;2023-05-07T00:43:33;2.33;;;1.52;;
17340;SDS011;8788;49.930;8.660;2023-05-07T00:46:00;1.83;;;1.33;;
17340;SDS011;8788;49.930;8.660;2023-05-07T00:48:27;2.40;;;1.17;;
17340;SDS011;8788;49.930;8.660;2023-05-07T00:50:56;1.45;;;1.25;;
17340;SDS011;8788;49.930;8.660;2023-05-07T00:53:23;1.10;;;1.00;;
17340;SDS011;8788;49.930;8.660;2023-05-07T00:55:51;2.30;;;1.20;;
17340;SDS011;8788;49.930;8.660;2023-05-07T00:58:19;1.30;;;1.20;;
17340;SDS011;8788;49.930;8.660;2023-05-07T01:00:47;1.42;;;1.30;;
17340;SDS011;8788;49.930;8.660;2023-05-07T01:03:15;2.63;;;1.30;;
17340;SDS011;8788;49.930;8.660;2023-05-07T01:05:42;2.13;;;1.05;;
17340;SDS011;8788;49.930;8.660;2023-05-07T01:08:12;1.15;;;1.08;;
17340;SDS011;8788;49.930;8.660;2023-05-07T01:10:40;2.55;;;1.05;;
17340;SDS011;8788;49.930;8.660;2023-05-07T01:13:08;1.55;;;1.27;;
17340;SDS011;8788;49.930;8.660;2023-05-07T01:15:36;1.58;;;1.17;;
17340;SDS011;8788;49.930;8.660;2023-05-07T01:18:05;1.30;;;1.00;;
17340;SDS011;8788;49.930;8.660;2023-05-07T01:21:15;3.78;;;1.30;;
17340;SDS011;8788;49.930;8.660;2023-05-07T01:23:45;1.70;;;1.20;;
17340;SDS011;8788;49.930;8.660;2023-05-07T01:26:13;2.05;;;1.52;;
17340;SDS011;8788;49.930;8.660;2023-05-07T01:28:43;2.22;;;1.30;;
17340;SDS011;8788;49.930;8.660;2023-05-07T01:31:10;3.40;;;1.88;;
17340;SDS011;8788;49.930;8.660;2023-05-07T01:33:40;2.60;;;1.40;;
17340;SDS011;8788;49.930;8.660;2023-05-07T01:36:09;1.42;;;1.27;;
17340;SDS011;8788;49.930;8.660;2023-05-07T01:38:38;3.03;;;1.30;;
17340;SDS011;8788;49.930;8.660;2023-05-07T01:41:08;1.60;;;1.50;;
17340;SDS011;8788;49.930;8.660;2023-05-07T01:43:36;3.25;;;1.33;;
17340;SDS011;8788;49.930;8.660;2023-05-07T01:46:03;3.83;;;1.52;;
17340;SDS011;8788;49.930;8.660;2023-05-07T01:48:30;1.70;;;1.45;;
17340;SDS011;8788;49.930;8.660;2023-05-07T01:50:59;3.47;;;1.52;;
17340;SDS011;8788;49.930;8.660;2023-05-07T01:53:26;4.00;;;1.70;;
17340;SDS011;8788;49.930;8.660;2023-05-07T01:55:54;1.80;;;1.70;;
17340;SDS011;8788;49.930;8.660;2023-05-07T01:58:23;1.77;;;1.52;;
17340;SDS011;8788;49.930;8.660;2023-05-07T02:00:50;1.92;;;1.83;;
17340;SDS011;8788;49.930;8.660;2023-05-07T02:03:17;1.13;;;1.00;;
17340;SDS011;8788;49.930;8.660;2023-05-07T02:05:52;3.97;;;1.60;;
17340;SDS011;8788;49.930;8.660;2023-05-07T02:08:30;4.07;;;1.55;;
17340;SDS011;8788;49.930;8.660;2023-05-07T02:10:57;2.10;;;1.90;;
17340;SDS011;8788;49.930;8.660;2023-05-07T02:13:26;1.60;;;1.50;;
17340;SDS011;8788;49.930;8.660;2023-05-07T02:15:55;3.05;;;1.60;;
17340;SDS011;8788;49.930;8.660;2023-05-07T02:18:23;2.17;;;1.50;;
17340;SDS011;8788;49.930;8.660;2023-05-07T02:20:50;1.33;;;1.08;;
17340;SDS011;8788;49.930;8.660;2023-05-07T02:23:17;2.85;;;1.80;;
17340;SDS011;8788;49.930;8.660;2023-05-07T02:25:45;1.38;;;1.27;;
17340;SDS011;8788;49.930;8.660;2023-05-07T02:28:12;1.67;;;1.58;;
17340;SDS011;8788;49.930;8.660;2023-05-07T02:30:48;3.30;;;1.38;;
17340;SDS011;8788;49.930;8.660;2023-05-07T02:33:16;1.65;;;1.30;;
17340;SDS011;8788;49.930;8.660;2023-05-07T02:35:43;3.42;;;1.65;;
17340;SDS011;8788;49.930;8.660;2023-05-07T02:38:12;2.05;;;1.60;;
17340;SDS011;8788;49.930;8.660;2023-05-07T02:40:40;2.00;;;1.75;;
17340;SDS011;8788;49.930;8.660;2023-05-07T02:43:08;2.63;;;1.70;;
17340;SDS011;8788;49.930;8.660;2023-05-07T02:45:35;1.48;;;1.38;;
17340;SDS011;8788;49.930;8.660;2023-05-07T02:48:06;3.17;;;2.13;;
17340;SDS011;8788;49.930;8.660;2023-05-07T02:50:33;2.70;;;1.90;;
17340;SDS011;8788;49.930;8.660;2023-05-07T02:53:00;1.80;;;1.60;;
17340;SDS011;8788;49.930;8.660;2023-05-07T02:55:27;1.85;;;1.55;;
17340;SDS011;8788;49.930;8.660;2023-05-07T02:57:54;3.08;;;1.80;;
17340;SDS011;8788;49.930;8.660;2023-05-07T03:00:22;2.15;;;1.90;;
17340;SDS011;8788;49.930;8.660;2023-05-07T03:03:11;4.97;;;2.40;;
17340;SDS011;8788;49.930;8.660;2023-05-07T03:05:38;4.47;;;1.80;;
17340;SDS011;8788;49.930;8.660;2023-05-07T03:08:05;3.55;;;2.45;;
17340;SDS011;8788;49.930;8.660;2023-05-07T03:10:33;3.67;;;2.13;;
17340;SDS011;8788;49.930;8.660;2023-05-07T03:13:00;2.67;;;2.30;;
17340;SDS011;8788;49.930;8.660;2023-05-07T03:15:28;2.13;;;1.98;;
17340;SDS011;8788;49.930;8.660;2023-05-07T03:17:55;2.60;;;2.17;;
17340;SDS011;8788;49.930;8.660;2023-05-07T03:20:24;3.08;;;1.90;;
17340;SDS011;8788;49.930;8.660;2023-05-07T03:22:51;5.05;;;1.95;;
17340;SDS011;8788;49.930;8.660;2023-05-07T03:25:18;2.65;;;2.00;;
17340;SDS011;8788;49.930;8.660;2023-05-07T03:27:45;2.85;;;2.15;;
17340;SDS011;8788;49.930;8.660;2023-05-07T03:30:13;2.35;;;2.15;;
17340;SDS011;8788;49.930;8.660;2023-05-07T03:32:40;3.38;;;2.17;;
17340;SDS011;8788;49.930;8.660;2023-05-07T03:35:10;3.53;;;2.50;;
17340;SDS011;8788;49.930;8.660;2023-05-07T03:37:39;2.65;;;2.08;;
17340;SDS011;8788;49.930;8.660;2023-05-07T03:40:07;3.42;;;2.30;;
17340;SDS011;8788;49.930;8.660;2023-05-07T03:42:43;1.63;;;1.52;;
17340;SDS011;8788;49.930;8.660;2023-05-07T03:45:12;1.90;;;1.80;;
17340;SDS011;8788;49.930;8.660;2023-05-07T03:47:44;2.20;;;2.00;;
17340;SDS011;8788;49.930;8.660;2023-05-07T03:50:15;1.80;;;1.70;;
17340;SDS011;8788;49.930;8.660;2023-05-07T03:52:43;2.67;;;1.90;;
17340;SDS011;8788;49.930;8.660;2023-05-07T03:55:12;1.67;;;1.55;;
17340;SDS011;8788;49.930;8.660;2023-05-07T03:57:45;1.77;;;1.67;;
17340;SDS011;8788;49.930;8.660;2023-05-07T04:00:13;2.15;;;1.95;;
17340;SDS011;8788;49.930;8.660;2023-05-07T04:02:46;2.88;;;1.80;;
17340;SDS011;8788;49.930;8.660;2023-05-07T04:05:16;1.63;;;1.35;;
17340;SDS011;8788;49.930;8.660;2023-05-07T04:07:46;1.60;;;1.50;;
17340;SDS011;8788;49.930;8.660;2023-05-07T04:10:17;1.75;;;1.60;;
17340;SDS011;8788;49.930;8.660;2023-05-07T04:12:46;2.78;;;1.85;;
17340;SDS011;8788;49.930;8.660;2023-05-07T04:15:18;2.33;;;1.60;;
17340;SDS011;8788;49.930;8.660;2023-05-07T04:17:45;3.58;;;1.63;;
17340;SDS011;8788;49.930;8.660;2023-05-07T04:20:15;3.47;;;1.63;;
17340;SDS011;8788;49.930;8.660;2023-05-07T04:22:48;3.03;;;1.65;;
17340;SDS011;8788;49.930;8.660;2023-05-07T04:25:15;1.55;;;1.33;;
17340;SDS011;8788;49.930;8.660;2023-05-07T04:27:43;1.80;;;1.50;;
17340;SDS011;8788;49.930;8.660;2023-05-07T04:30:11;2.40;;;1.40;;
17340;SDS011;8788;49.930;8.660;2023-05-07T04:32:39;2.72;;;1.50;;
17340;SDS011;8788;49.930;8.660;2023-05-07T04:35:06;2.25;;;1.45;;
17340;SDS011;8788;49.930;8.660;2023-05-07T04:37:34;1.75;;;1.60;;
17340;SDS011;8788;49.930;8.660;2023-05-07T04:40:03;5.40;;;1.50;;
17340;SDS011;8788;49.930;8.660;2023-05-07T04:42:31;1.80;;;1.63;;
17340;SDS011;8788;49.930;8.660;2023-05-07T04:45:00;2.33;;;1.67;;
17340;SDS011;8788;49.930;8.660;2023-05-07T04:47:31;1.60;;;1.40;;
17340;SDS011;8788;49.930;8.660;2023-05-07T04:50:00;1.40;;;1.30;;
17340;SDS011;8788;49.930;8.660;2023-05-07T04:52:27;3.33;;;1.90;;
17340;SDS011;8788;49.930;8.660;2023-05-07T04:54:54;1.73;;;1.27;;
17340;SDS011;8788;49.930;8.660;2023-05-07T04:57:23;1.40;;;1.30;;
17340;SDS011;8788;49.930;8.660;2023-05-07T04:59:50;1.88;;;1.77;;
17340;SDS011;8788;49.930;8.660;2023-05-07T05:02:17;2.58;;;1.60;;
17340;SDS011;8788;49.930;8.660;2023-05-07T05:04:45;3.33;;;1.70;;
17340;SDS011;8788;49.930;8.660;2023-05-07T05:07:12;1.48;;;1.35;;
17340;SDS011;8788;49.930;8.660;2023-05-07T05:09:40;1.98;;;1.50;;
17340;SDS011;8788;49.930;8.660;2023-05-07T05:12:07;1.95;;;1.58;;
17340;SDS011;8788;49.930;8.660;2023-05-07T05:14:37;1.83;;;1.60;;
17340;SDS011;8788;49.930;8.660;2023-05-07T05:17:06;1.73;;;1.63;;
17340;SDS011;8788;49.930;8.660;2023-05-07T05:19:35;1.80;;;1.70;;
17340;SDS011;8788;49.930;8.660;2023-05-07T05:22:02;2.10;;;1.60;;
17340;SDS011;8788;49.930;8.660;2023-05-07T05:24:30;1.83;;;1.40;;
17340;SDS011;8788;49.930;8.660;2023-05-07T05:26:58;1.25;;;1.15;;
17340;SDS011;8788;49.930;8.660;2023-05-07T05:29:28;3.15;;;1.73;;
17340;SDS011;8788;49.930;8.660;2023-05-07T05:31:58;2.15;;;1.40;;
17340;SDS011;8788;49.930;8.660;2023-05-07T05:34:27;2.83;;;1.70;;
17340;SDS011;8788;49.930;8.660;2023-05-07T05:36:54;1.77;;;1.48;;
17340;SDS011;8788;49.930;8.660;2023-05-07T05:39:21;2.65;;;1.30;;
17340;SDS011;8788;49.930;8.660;2023-05-07T05:41:48;2.88;;;1.83;;
17340;SDS011;8788;49.930;8.660;2023-05-07T05:44:16;1.35;;;1.25;;
17340;SDS011;8788;49.930;8.660;2023-05-07T05:46:43;2.00;;;1.60;;
17340;SDS011;8788;49.930;8.660;2023-05-07T05:49:12;1.40;;;1.30;;
17340;SDS011;8788;49.930;8.660;2023-05-07T05:51:39;2.22;;;1.50;;
17340;SDS011;8788;49.930;8.660;2023-05-07T05:54:06;2.25;;;1.40;;
17340;SDS011;8788;49.930;8.660;2023-05-07T05:56:34;1.67;;;1.33;;
17340;SDS011;8788;49.930;8.660;2023-05-07T05:59:01;1.60;;;1.30;;
17340;SDS011;8788;49.930;8.660;2023-05-07T06:01:28;2.95;;;1.65;;
17340;SDS011;8788;49.930;8.660;2023-05-07T06:03:59;1.50;;;1.38;;
17340;SDS011;8788;49.930;8.660;2023-05-07T06:06:28;1.98;;;1.77;;
17340;SDS011;8788;49.930;8.660;2023-05-07T06:08:56;1.30;;;1.23;;
17340;SDS011;8788;49.930;8.660;2023-05-07T06:11:31;3.60;;;1.52;;
17340;SDS011;8788;49.930;8.660;2023-05-07T06:13:58;1.70;;;1.30;;
17340;SDS011;8788;49.930;8.660;2023-05-07T06:16:26;1.85;;;1.70;;
17340;SDS011;8788;49.930;8.660;2023-05-07T06:18:53;1.75;;;1.60;;
17340;SDS011;8788;49.930;8.660;2023-05-07T06:21:21;2.20;;;1.35;;
17340;SDS011;8788;49.930;8.660;2023-05-07T06:23:49;1.70;;;1.60;;
17340;SDS011;8788;49.930;8.660;2023-05-07T06:26:17;1.73;;;1.50;;
17340;SDS011;8788;49.930;8.660;2023-05-07T06:28:46;1.70;;;1.60;;
17340;SDS011;8788;49.930;8.660;2023-05-07T06:31:15;2.90;;;1.50;;
17340;SDS011;8788;49.930;8.660;2023-05-07T06:33:52;3.97;;;1.55;;
17340;SDS011;8788;49.930;8.660;2023-05-07T06:36:20;1.83;;;1.33;;
17340;SDS011;8788;49.930;8.660;2023-05-07T06:38:49;2.47;;;1.60;;
17340;SDS011;8788;49.930;8.660;2023-05-07T06:41:16;1.55;;;1.45;;
17340;SDS011;8788;49.930;8.660;2023-05-07T06:43:43;1.63;;;1.52;;
17340;SDS011;8788;49.930;8.660;2023-05-07T06:46:43;1.20;;;1.10;;
17340;SDS011;8788;49.930;8.660;2023-05-07T06:49:10;1.85;;;1.58;;
17340;SDS011;8788;49.930;8.660;2023-05-07T06:51:38;2.63;;;1.75;;
17340;SDS011;8788;49.930;8.660;2023-05-07T06:54:07;1.60;;;1.17;;
17340;SDS011;8788;49.930;8.660;2023-05-07T06:56:36;3.47;;;1.50;;
17340;SDS011;8788;49.930;8.660;2023-05-07T06:59:04;4.53;;;1.50;;
17340;SDS011;8788;49.930;8.660;2023-05-07T07:01:36;1.75;;;1.38;;
17340;SDS011;8788;49.930;8.660;2023-05-07T07:04:04;2.13;;;1.70;;
17340;SDS011;8788;49.930;8.660;2023-05-07T07:06:32;1.98;;;1.88;;
17340;SDS011;8788;49.930;8.660;2023-05-07T07:09:01;1.92;;;1.65;;
17340;SDS011;8788;49.930;8.660;2023-05-07T07:11:31;3.60;;;1.92;;
17340;SDS011;8788;49.930;8.660;2023-05-07T07:13:59;2.08;;;1.90;;
17340;SDS011;8788;49.930;8.660;2023-05-07T07:16:28;3.55;;;1.63;;
17340;SDS011;8788;49.930;8.660;2023-05-07T07:18:55;5.13;;;2.00;;
17340;SDS011;8788;49.930;8.660;2023-05-07T07:21:23;1.50;;;1.40;;
17340;SDS011;8788;49.930;8.660;2023-05-07T07:23:51;1.67;;;1.58;;
17340;SDS011;8788;49.930;8.660;2023-05-07T07:26:19;1.98;;;1.77;;
17340;SDS011;8788;49.930;8.660;2023-05-07T07:28:48;1.40;;;1.30;;
17340;SDS011;8788;49.930;8.660;2023-05-07T07:31:18;2.10;;;1.90;;
17340;SDS011;8788;49.930;8.660;2023-05-07T07:33:48;2.33;;;1.73;;
17340;SDS011;8788;49.930;8.660;2023-05-07T07:36:15;1.75;;;1.65;;
17340;SDS011;8788;49.930;8.660;2023-05-07T07:38:42;1.67;;;1.55;;
17340;SDS011;8788;49.930;8.660;2023-05-07T07:41:09;2.17;;;1.83;;
17340;SDS011;8788;49.930;8.660;2023-05-07T07:43:37;1.83;;;1.70;;
17340;SDS011;8788;49.930;8.660;2023-05-07T07:46:05;1.73;;;1.63;;
17340;SDS011;8788;49.930;8.660;2023-05-07T07:48:33;1.80;;;1.70;;
17340;SDS011;8788;49.930;8.660;2023-05-07T07:51:00;2.50;;;1.58;;
17340;SDS011;8788;49.930;8.660;2023-05-07T07:53:28;2.05;;;1.60;;
17340;SDS011;8788;49.930;8.660;2023-05-07T07:55:55;2.50;;;2.20;;
17340;SDS011;8788;49.930;8.660;2023-05-07T07:58:25;2.75;;;1.60;;
17340;SDS011;8788;49.930;8.660;2023-05-07T08:00:53;1.70;;;1.60;;
17340;SDS011;8788;49.930;8.660;2023-05-07T08:03:22;1.90;;;1.80;;
17340;SDS011;8788;49.930;8.660;2023-05-07T08:05:53;1.67;;;1.58;;
17340;SDS011;8788;49.930;8.660;2023-05-07T08:08:21;1.90;;;1.80;;
17340;SDS011;8788;49.930;8.660;2023-05-07T08:10:48;2.20;;;2.00;;
17340;SDS011;8788;49.930;8.660;2023-05-07T08:13:23;2.83;;;2.33;;
17340;SDS011;8788;49.930;8.660;2023-05-07T08:15:50;4.05;;;1.95;;
17340;SDS011;8788;49.930;8.660;2023-05-07T08:18:18;2.50;;;1.98;;
17340;SDS011;8788;49.930;8.660;2023-05-07T08:20:47;3.67;;;1.80;;
17340;SDS011;8788;49.930;8.660;2023-05-07T08:23:17;2.47;;;2.13;;
17340;SDS011;8788;49.930;8.660;2023-05-07T08:25:45;3.25;;;2.10;;
17340;SDS011;8788;49.930;8.660;2023-05-07T08:28:13;2.78;;;2.25;;
17340;SDS011;8788;49.930;8.660;2023-05-07T08:30:40;2.05;;;1.85;;
17340;SDS011;8788;49.930;8.660;2023-05-07T08:33:08;4.40;;;2.10;;
17340;SDS011;8788;49.930;8.660;2023-05-07T08:35:35;2.58;;;2.38;;
17340;SDS011;8788;49.930;8.660;2023-05-07T08:38:06;2.40;;;1.98;;
17340;SDS011;8788;49.930;8.660;2023-05-07T08:40:35;2.00;;;1.90;;
17340;SDS011;8788;49.930;8.660;2023-05-07T08:43:07;2.08;;;1.98;;
17340;SDS011;8788;49.930;8.660;2023-05-07T08:45:36;2.45;;;2.25;;
17340;SDS011;8788;49.930;8.660;2023-05-07T08:48:08;2.47;;;2.13;;
17340;SDS011;8788;49.930;8.660;2023-05-07T08:50:41;2.25;;;2.05;;
17340;SDS011;8788;49.930;8.660;2023-05-07T08:53:11;2.42;;;2.03;;
17340;SDS011;8788;49.930;8.660;2023-05-07T08:55:39;2.55;;;2.35;;
17340;SDS011;8788;49.930;8.660;2023-05-07T08:58:06;5.22;;;2.63;;
17340;SDS011;8788;49.930;8.660;2023-05-07T09:00:37;2.30;;;2.20;;
17340;SDS011;8788;49.930;8.660;2023-05-07T09:03:06;2.72;;;2.08;;
17340;SDS011;8788;49.930;8.660;2023-05-07T09:05:34;2.60;;;2.40;;
17340;SDS011;8788;49.930;8.660;2023-05-07T09:08:02;2.53;;;2.33;;
17340;SDS011;8788;49.930;8.660;2023-05-07T09:10:32;2.55;;;2.35;;
17340;SDS011;8788;49.930;8.660;2023-05-07T09:13:02;2.88;;;2.17;;
17340;SDS011;8788;49.930;8.660;2023-05-07T09:15:30;3.20;;;2.10;;
17340;SDS011;8788;49.930;8.660;2023-05-07T09:17:59;2.35;;;1.92;;
17340;SDS011;8788;49.930;8.660;2023-05-07T09:20:29;2.47;;;2.28;;
17340;SDS011;8788;49.930;8.660;2023-05-07T09:22:57;2.22;;;2.03;;
17340;SDS011;8788;49.930;8.660;2023-05-07T09:25:29;2.60;;;2.40;;
17340;SDS011;8788;49.930;8.660;2023-05-07T09:28:01;2.60;;;2.05;;
17340;SDS011;8788;49.930;8.660;2023-05-07T09:30:29;3.33;;;2.00;;
17340;SDS011;8788;49.930;8.660;2023-05-07T09:32:59;2.70;;;2.50;;
17340;SDS011;8788;49.930;8.660;2023-05-07T09:35:28;2.13;;;1.95;;
17340;SDS011;8788;49.930;8.660;2023-05-07T09:38:00;2.70;;;2.50;;
17340;SDS011;8788;49.930;8.660;2023-05-07T09:40:30;2.97;;;2.28;;
17340;SDS011;8788;49.930;8.660;2023-05-07T09:43:12;3.97;;;2.80;;
17340;SDS011;8788;49.930;8.660;2023-05-07T09:45:52;2.38;;;2.25;;
17340;SDS011;8788;49.930;8.660;2023-05-07T09:48:23;3.17;;;2.30;;
17340;SDS011;8788;49.930;8.660;2023-05-07T09:50:55;6.88;;;2.72;;
17340;SDS011;8788;49.930;8.660;2023-05-07T09:53:26;2.40;;;2.30;;
17340;SDS011;8788;49.930;8.660;2023-05-07T09:55:55;2.78;;;2.05;;
17340;SDS011;8788;49.930;8.660;2023-05-07T09:58:25;3.40;;;2.10;;
17340;SDS011;8788;49.930;8.660;2023-05-07T10:00:53;2.55;;;2.30;;
17340;SDS011;8788;49.930;8.660;2023-05-07T10:03:21;2.25;;;2.05;;
17340;SDS011;8788;49.930;8.660;2023-05-07T10:05:54;3.45;;;2.00;;
17340;SDS011;8788;49.930;8.660;2023-05-07T10:08:23;1.95;;;1.85;;
17340;SDS011;8788;49.930;8.660;2023-05-07T10:10:53;3.63;;;1.85;;
17340;SDS011;8788;49.930;8.660;2023-05-07T10:13:24;2.42;;;2.22;;
17340;SDS011;8788;49.930;8.660;2023-05-07T10:15:55;2.47;;;2.00;;
17340;SDS011;8788;49.930;8.660;2023-05-07T10:18:25;1.90;;;1.75;;
17340;SDS011;8788;49.930;8.660;2023-05-07T10:21:02;2.40;;;2.20;;
17340;SDS011;8788;49.930;8.660;2023-05-07T10:23:33;2.75;;;2.55;;
17340;SDS011;8788;49.930;8.660;2023-05-07T10:26:02;2.45;;;2.25;;
17340;SDS011;8788;49.930;8.660;2023-05-07T10:28:34;2.33;;;2.17;;
17340;SDS011;8788;49.930;8.660;2023-05-07T10:31:20;2.70;;;2.50;;
17340;SDS011;8788;49.930;8.660;2023-05-07T10:34:00;2.30;;;2.00;;
17340;SDS011;8788;49.930;8.660;2023-05-07T10:36:33;2.45;;;2.05;;
17340;SDS011;8788;49.930;8.660;2023-05-07T10:39:01;4.00;;;1.70;;
17340;SDS011;8788;49.930;8.660;2023-05-07T10:41:29;2.35;;;2.15;;
17340;SDS011;8788;49.930;8.660;2023-05-07T10:43:57;2.00;;;1.90;;
17340;SDS011;8788;49.930;8.660;2023-05-07T10:46:29;2.40;;;2.20;;
17340;SDS011;8788;49.930;8.660;2023-05-07T10:49:09;1.90;;;1.80;;
17340;SDS011;8788;49.930;8.660;2023-05-07T10:52:15;2.17;;;2.03;;
17340;SDS011;8788;49.930;8.660;2023-05-07T10:55:19;2.38;;;2.00;;
17340;SDS011;8788;49.930;8.660;2023-05-07T10:58:22;3.17;;;2.72;;
17340;SDS011;8788;49.930;8.660;2023-05-07T11:00:57;2.50;;;2.25;;
17340;SDS011;8788;49.930;8.660;2023-05-07T11:03:30;2.45;;;2.17;;
17340;SDS011;8788;49.930;8.660;2023-05-07T11:06:09;3.40;;;2.60;;
17340;SDS011;8788;49.930;8.660;2023-05-07T11:08:59;2.17;;;1.98;;
17340;SDS011;8788;49.930;8.660;2023-05-07T11:11:44;2.42;;;1.98;;
17340;SDS011;8788;49.930;8.660;2023-05-07T11:14:27;2.20;;;2.10;;
17340;SDS011;8788;49.930;8.660;2023-05-07T11:17:15;2.58;;;2.10;;
17340;SDS011;8788;49.930;8.660;2023-05-07T11:19:47;1.60;;;1.50;;
17340;SDS011;8788;49.930;8.660;2023-05-07T11:22:35;2.10;;;1.85;;
17340;SDS011;8788;49.930;8.660;2023-05-07T11:25:25;2.15;;;1.77;;
17340;SDS011;8788;49.930;8.660;2023-05-07T11:28:08;2.00;;;1.90;;
17340;SDS011;8788;49.930;8.660;2023-05-07T11:30:42;4.97;;;1.73;;
17340;SDS011;8788;49.930;8.660;2023-05-07T11:33:14;1.48;;;1.40;;
17340;SDS011;8788;49.930;8.660;2023-05-07T11:35:46;1.65;;;1.55;;
17340;SDS011;8788;49.930;8.660;2023-05-07T11:38:16;1.55;;;1.45;;
17340;SDS011;8788;49.930;8.660;2023-05-07T11:40:51;2.22;;;1.40;;
17340;SDS011;8788;49.930;8.660;2023-05-07T11:43:18;1.45;;;1.35;;
17340;SDS011;8788;49.930;8.660;2023-05-07T11:45:45;1.95;;;1.60;;
17340;SDS011;8788;49.930;8.660;2023-05-07T11:48:12;1.88;;;1.60;;
17340;SDS011;8788;49.930;8.660;2023-05-07T11:50:49;3.67;;;1.85;;
17340;SDS011;8788;49.930;8.660;2023-05-07T11:53:17;2.05;;;1.48;;
17340;SDS011;8788;49.930;8.660;2023-05-07T11:55:45;2.40;;;2.20;;
17340;SDS011;8788;49.930;8.660;2023-05-07T11:58:12;1.88;;;1.65;;
17340;SDS011;8788;49.930;8.660;2023-05-07T12:00:48;2.55;;;1.77;;
17340;SDS011;8788;49.930;8.660;2023-05-07T12:03:17;2.28;;;1.75;;
17340;SDS011;8788;49.930;8.660;2023-05-07T12:05:44;2.67;;;1.90;;
17340;SDS011;8788;49.930;8.660;2023-05-07T12:08:13;5.30;;;1.90;;
17340;SDS011;8788;49.930;8.660;2023-05-07T12:10:41;1.92;;;1.83;;
17340;SDS011;8788;49.930;8.660;2023-05-07T12:13:13;3.47;;;1.92;;
17340;SDS011;8788;49.930;8.660;2023-05-07T12:15:41;3.67;;;1.75;;
17340;SDS011;8788;49.930;8.660;2023-05-07T12:18:08;2.10;;;1.63;;
17340;SDS011;8788;49.930;8.660;2023-05-07T12:20:38;1.80;;;1.40;;
17340;SDS011;8788;49.930;8.660;2023-05-07T12:23:05;2.10;;;1.88;;
17340;SDS011;8788;49.930;8.660;2023-05-07T12:25:34;1.50;;;1.35;;
17340;SDS011;8788;49.930;8.660;2023-05-07T12:28:01;1.33;;;1.23;;
17340;SDS011;8788;49.930;8.660;2023-05-07T12:30:30;1.40;;;1.30;;
17340;SDS011;8788;49.930;8.660;2023-05-07T12:32:57;2.92;;;1.85;;
17340;SDS011;8788;49.930;8.660;2023-05-07T12:35:27;1.50;;;1.40;;
17340;SDS011;8788;49.930;8.660;2023-05-07T12:37:56;1.65;;;1.38;;
17340;SDS011;8788;49.930;8.660;2023-05-07T12:40:34;2.20;;;1.98;;
17340;SDS011;8788;49.930;8.660;2023-05-07T12:43:02;1.73;;;1.63;;
17340;SDS011;8788;49.930;8.660;2023-05-07T12:45:29;2.22;;;1.80;;
17340;SDS011;8788;49.930;8.660;2023-05-07T12:47:56;3.42;;;1.98;;
17340;SDS011;8788;49.930;8.660;2023-05-07T12:50:30;1.55;;;1.45;;
17340;SDS011;8788;49.930;8.660;2023-05-07T12:52:59;1.77;;;1.40;;
17340;SDS011;8788;49.930;8.660;2023-05-07T12:55:28;1.92;;;1.40;;
17340;SDS011;8788;49.930;8.660;2023-05-07T12:57:55;1.67;;;1.30;;
17340;SDS011;8788;49.930;8.660;2023-05-07T13:00:33;1.20;;;1.10;;
17340;SDS011;8788;49.930;8.660;2023-05-07T13:03:01;3.63;;;1.30;;
17340;SDS011;8788;49.930;8.660;2023-05-07T13:05:28;1.52;;;1.33;;
17340;SDS011;8788;49.930;8.660;2023-05-07T13:07:56;1.55;;;1.45;;
17340;SDS011;8788;49.930;8.660;2023-05-07T13:10:24;1.77;;;1.23;;
17340;SDS011;8788;49.930;8.660;2023-05-07T13:12:52;1.00;;;1.00;;
17340;SDS011;8788;49.930;8.660;2023-05-07T13:15:19;0.90;;;0.90;;
17340;SDS011;8788;49.930;8.660;2023-05-07T13:17:46;1.77;;;0.80;;
17340;SDS011;8788;49.930;8.660;2023-05-07T13:20:13;1.63;;;1.15;;
17340;SDS011;8788;49.930;8.660;2023-05-07T13:22:40;4.15;;;1.30;;
17340;SDS011;8788;49.930;8.660;2023-05-07T13:25:08;1.20;;;1.10;;
17340;SDS011;8788;49.930;8.660;2023-05-07T13:27:37;1.58;;;1.48;;
17340;SDS011;8788;49.930;8.660;2023-05-07T13:30:04;1.63;;;1.25;;
17340;SDS011;8788;49.930;8.660;2023-05-07T13:32:32;1.38;;;1.27;;
17340;SDS011;8788;49.930;8.660;2023-05-07T13:35:00;1.63;;;1.52;;
17340;SDS011;8788;49.930;8.660;2023-05-07T13:37:27;1.40;;;1.30;;
17340;SDS011;8788;49.930;8.660;2023-05-07T13:39:54;2.20;;;1.00;;
17340;SDS011;8788;49.930;8.660;2023-05-07T13:42:21;2.67;;;1.20;;
17340;SDS011;8788;49.930;8.660;2023-05-07T13:44:50;2.38;;;1.20;;
17340;SDS011;8788;49.930;8.660;2023-05-07T13:47:17;1.20;;;1.10;;
17340;SDS011;8788;49.930;8.660;2023-05-07T13:49:44;1.40;;;1.13;;
17340;SDS011;8788;49.930;8.660;2023-05-07T13:52:14;5.72;;;1.50;;
17340;SDS011;8788;49.930;8.660;2023-05-07T13:54:41;1.33;;;1.23;;
17340;SDS011;8788;49.930;8.660;2023-05-07T13:57:09;2.10;;;1.10;;
17340;SDS011;8788;49.930;8.660;2023-05-07T13:59:36;2.10;;;1.42;;
17340;SDS011;8788;49.930;8.660;2023-05-07T14:02:04;1.17;;;1.08;;
17340;SDS011;8788;49.930;8.660;2023-05-07T14:04:32;1.42;;;1.05;;
17340;SDS011;8788;49.930;8.660;2023-05-07T14:06:59;1.77;;;1.38;;
17340;SDS011;8788;49.930;8.660;2023-05-07T14:09:26;2.35;;;1.20;;
17340;SDS011;8788;49.930;8.660;2023-05-07T14:11:53;1.02;;;0.90;;
17340;SDS011;8788;49.930;8.660;2023-05-07T14:14:20;1.33;;;0.90;;
17340;SDS011;8788;49.930;8.660;2023-05-07T14:16:47;3.72;;;1.30;;
17340;SDS011;8788;49.930;8.660;2023-05-07T14:19:15;1.00;;;1.00;;
17340;SDS011;8788;49.930;8.660;2023-05-07T14:21:42;1.02;;;0.95;;
17340;SDS011;8788;49.930;8.660;2023-05-07T14:24:09;1.00;;;1.00;;
17340;SDS011;8788;49.930;8.660;2023-05-07T14:26:36;1.27;;;0.90;;
17340;SDS011;8788;49.930;8.660;2023-05-07T14:29:03;1.48;;;0.85;;
17340;SDS011;8788;49.930;8.660;2023-05-07T14:31:31;5.28;;;0.90;;
17340;SDS011;8788;49.930;8.660;2023-05-07T14:33:58;1.13;;;1.13;;
17340;SDS011;8788;49.930;8.660;2023-05-07T14:36:26;1.20;;;1.10;;
17340;SDS011;8788;49.930;8.660;2023-05-07T14:38:55;1.40;;;1.30;;
17340;SDS011;8788;49.930;8.660;2023-05-07T14:41:24;1.63;;;1.52;;
17340;SDS011;8788;49.930;8.660;2023-05-07T14:43:51;1.48;;;1.38;;
17340;SDS011;8788;49.930;8.660;2023-05-07T14:46:18;1.38;;;1.20;;
17340;SDS011;8788;49.930;8.660;2023-05-07T14:48:45;3.00;;;1.33;;
17340;SDS011;8788;49.930;8.660;2023-05-07T14:51:13;1.98;;;0.98;;
17340;SDS011;8788;49.930;8.660;2023-05-07T14:53:41;1.67;;;1.33;;
17340;SDS011;8788;49.930;8.660;2023-05-07T14:56:09;2.08;;;0.85;;
17340;SDS011;8788;49.930;8.660;2023-05-07T14:58:36;1.10;;;1.05;;
17340;SDS011;8788;49.930;8.660;2023-05-07T15:01:03;1.05;;;0.95;;
17340;SDS011;8788;49.930;8.660;2023-05-07T15:03:30;0.82;;;0.82;;
17340;SDS011;8788;49.930;8.660;2023-05-07T15:05:57;3.25;;;1.00;;
17340;SDS011;8788;49.930;8.660;2023-05-07T15:08:24;0.73;;;0.73;;
17340;SDS011;8788;49.930;8.660;2023-05-07T15:10:53;0.85;;;0.85;;
17340;SDS011;8788;49.930;8.660;2023-05-07T15:13:20;2.15;;;1.15;;
17340;SDS011;8788;49.930;8.660;2023-05-07T15:15:47;1.98;;;1.27;;